createdAt,value
2023-05-20T00:02:45.072Z,4.18
2023-05-20T00:05:47.261Z,5.03
2023-05-20T00:08:49.203Z,5.75
2023-05-20T00:11:51.115Z,6.45
2023-05-20T00:14:53.923Z,6.30
2023-05-20T00:17:57.838Z,7.18
2023-05-20T00:20:59.704Z,6.72
2023-05-20T00:24:01.855Z,5.68
2023-05-20T00:27:03.846Z,5.00
2023-05-20T00:30:06.362Z,4.60
2023-05-20T00:33:08.448Z,4.25
2023-05-20T00:36:10.477Z,4.05
2023-05-20T00:39:12.491Z,3.35
2023-05-20T00:42:25.110Z,3.63
2023-05-20T00:45:27.231Z,3.30
2023-05-20T00:48:40.190Z,3.50
2023-05-20T00:54:45.016Z,3.53
2023-05-20T01:00:49.091Z,3.30
2023-05-20T01:03:52.176Z,3.92
2023-05-20T01:06:55.783Z,3.45
2023-05-20T01:09:57.686Z,3.33
2023-05-20T01:16:06.090Z,3.40
2023-05-20T01:19:48.724Z,3.92
2023-05-20T01:22:54.949Z,3.43
2023-05-20T01:25:56.819Z,4.00
2023-05-20T01:29:04.307Z,3.73
2023-05-20T01:32:32.023Z,3.65
2023-05-20T01:35:35.128Z,3.28
2023-05-20T01:38:39.403Z,3.85
2023-05-20T01:41:42.136Z,3.92
2023-05-20T01:44:44.225Z,3.45
2023-05-20T01:47:46.510Z,4.03
2023-05-20T01:50:48.348Z,4.13
2023-05-20T01:53:51.890Z,3.67
2023-05-20T01:56:54.082Z,4.07
2023-05-20T01:59:57.552Z,3.97
2023-05-20T02:02:59.617Z,4.10
2023-05-20T02:06:01.653Z,3.80
2023-05-20T02:09:03.777Z,4.05
2023-05-20T02:12:06.161Z,4.25
2023-05-20T02:15:09.446Z,4.03
2023-05-20T02:18:12.738Z,4.50
2023-05-20T02:21:14.670Z,4.30
2023-05-20T02:24:17.106Z,4.63
2023-05-20T02:27:18.944Z,4.00
2023-05-20T02:30:20.789Z,4.20
2023-05-20T02:33:22.850Z,4.07
2023-05-20T02:36:24.794Z,4.22
2023-05-20T02:39:28.524Z,4.23
2023-05-20T02:42:30.642Z,3.70
2023-05-20T02:45:32.548Z,3.90
2023-05-20T02:48:35.751Z,4.07
2023-05-20T02:51:37.709Z,4.10
2023-05-20T02:54:39.595Z,4.10
2023-05-20T02:57:42.087Z,4.53
2023-05-20T03:00:46.009Z,5.03
2023-05-20T03:03:47.942Z,4.13
2023-05-20T03:06:52.121Z,4.47
2023-05-20T03:09:54.028Z,4.47
2023-05-20T03:12:55.901Z,4.60
2023-05-20T03:15:57.912Z,4.67
2023-05-20T03:18:59.714Z,4.90
2023-05-20T03:22:02.293Z,4.30
2023-05-20T03:25:06.187Z,4.90
2023-05-20T03:28:08.027Z,4.50
2023-05-20T03:31:12.262Z,4.10
2023-05-20T03:34:14.255Z,5.18
2023-05-20T03:37:16.424Z,4.90
2023-05-20T03:40:18.365Z,4.60
2023-05-20T03:43:20.468Z,4.47
2023-05-20T03:46:22.457Z,7.65
2023-05-20T03:49:24.348Z,5.80
2023-05-20T03:52:27.023Z,5.45
2023-05-20T03:55:29.206Z,5.40
2023-05-20T03:58:31.445Z,5.10
2023-05-20T04:01:33.949Z,5.25
2023-05-20T04:04:36.294Z,5.28
2023-05-20T04:07:38.242Z,4.78
2023-05-20T04:10:45.499Z,4.97
2023-05-20T04:13:47.409Z,4.80
2023-05-20T04:16:50.359Z,4.40
2023-05-20T04:19:52.436Z,5.13
2023-05-20T04:22:55.204Z,5.00
2023-05-20T04:29:06.432Z,4.70
2023-05-20T04:32:11.242Z,4.43
2023-05-20T04:35:13.880Z,4.35
2023-05-20T04:38:18.698Z,4.00
2023-05-20T04:41:20.737Z,4.30
2023-05-20T04:44:24.791Z,4.35
2023-05-20T04:47:26.740Z,4.43
2023-05-20T04:50:29.560Z,5.22
2023-05-20T04:53:31.423Z,4.00
2023-05-20T04:56:33.751Z,4.60
2023-05-20T04:59:35.749Z,3.92
2023-05-20T05:02:38.607Z,4.43
2023-05-20T05:05:41.059Z,3.97
2023-05-20T05:08:43.693Z,4.47
2023-05-20T05:11:45.806Z,4.20
2023-05-20T05:14:47.680Z,3.80
2023-05-20T05:17:51.390Z,3.70
2023-05-20T05:21:04.057Z,3.92
2023-05-20T05:24:06.814Z,4.18
2023-05-20T05:30:11.013Z,4.10
2023-05-20T05:36:16.912Z,3.50
2023-05-20T05:39:19.305Z,3.78
2023-05-20T05:42:21.256Z,3.85
2023-05-20T05:45:23.185Z,3.70
2023-05-20T05:48:25.068Z,3.53
2023-05-20T05:51:29.105Z,3.40
2023-05-20T05:54:31.996Z,4.00
2023-05-20T05:57:34.194Z,3.35
2023-05-20T06:00:37.223Z,3.78
2023-05-20T06:03:39.289Z,3.67
2023-05-20T06:06:41.754Z,3.60
2023-05-20T06:09:43.704Z,3.30
2023-05-20T06:12:45.647Z,3.28
2023-05-20T06:15:49.936Z,3.25
2023-05-20T06:18:53.326Z,3.70
2023-05-20T06:21:57.053Z,3.25
2023-05-20T06:25:01.763Z,3.33
2023-05-20T06:28:05.396Z,3.28
2023-05-20T06:31:08.987Z,3.10
2023-05-20T06:34:11.406Z,3.65
2023-05-20T06:37:13.335Z,3.15
2023-05-20T06:43:17.799Z,3.25
2023-05-20T06:46:28.817Z,3.20
2023-05-20T06:49:36.116Z,3.05
2023-05-20T06:52:38.007Z,3.00
2023-05-20T06:55:40.086Z,2.90
2023-05-20T06:58:42.563Z,3.30
2023-05-20T07:01:45.457Z,2.75
2023-05-20T07:04:47.797Z,2.70
2023-05-20T07:07:50.450Z,3.03
2023-05-20T07:10:52.389Z,2.95
2023-05-20T07:13:56.468Z,2.70
2023-05-20T07:17:01.313Z,2.58
2023-05-20T07:20:04.439Z,2.78
2023-05-20T07:23:07.251Z,2.67
2023-05-20T07:26:17.545Z,2.67
2023-05-20T07:32:21.708Z,2.67
2023-05-20T07:38:27.063Z,3.03
2023-05-20T07:41:35.457Z,3.00
2023-05-20T07:47:40.176Z,2.58
2023-05-20T07:50:42.947Z,2.50
2023-05-20T07:53:45.844Z,2.33
2023-05-20T07:56:47.859Z,2.63
2023-05-20T08:06:01.256Z,2.40
2023-05-20T08:09:03.974Z,2.67
2023-05-20T08:12:09.225Z,2.60
2023-05-20T08:18:15.923Z,2.90
2023-05-20T08:21:17.898Z,2.50
2023-05-20T08:27:21.821Z,2.50
2023-05-20T08:30:23.886Z,2.55
2023-05-20T08:33:26.691Z,2.17
2023-05-20T08:36:28.733Z,2.25
2023-05-20T08:42:32.657Z,2.55
2023-05-20T08:45:38.485Z,2.20
2023-05-20T08:48:45.956Z,2.97
2023-05-20T08:51:48.333Z,2.67
2023-05-20T08:54:52.112Z,2.20
2023-05-20T08:57:58.203Z,2.25
2023-05-20T09:01:01.051Z,2.08
2023-05-20T09:04:02.922Z,2.28
2023-05-20T09:07:05.105Z,2.00
2023-05-20T09:10:07.367Z,2.60
2023-05-20T09:13:10.418Z,2.60
2023-05-20T09:16:12.872Z,2.30
2023-05-20T09:19:14.870Z,2.28
2023-05-20T09:22:26.090Z,2.42
2023-05-20T09:25:28.487Z,2.08
2023-05-20T09:28:30.482Z,2.30
2023-05-20T09:31:34.069Z,2.15
2023-05-20T09:34:36.168Z,2.33
2023-05-20T09:37:39.462Z,2.10
2023-05-20T09:40:44.564Z,2.10
2023-05-20T09:43:46.981Z,2.30
2023-05-20T09:46:50.605Z,2.10
2023-05-20T09:49:53.792Z,2.33
2023-05-20T09:52:56.253Z,2.22
2023-05-20T09:55:58.889Z,2.08
2023-05-20T09:59:02.629Z,2.50
2023-05-20T10:02:06.746Z,2.50
2023-05-20T10:05:16.743Z,2.78
2023-05-20T10:08:37.474Z,2.50
2023-05-20T10:11:45.089Z,2.28
2023-05-20T10:15:07.482Z,2.38
2023-05-20T10:18:18.357Z,2.55
2023-05-20T10:21:24.593Z,2.30
2023-05-20T10:24:32.259Z,2.55
2023-05-20T10:27:44.694Z,2.10
2023-05-20T10:30:51.105Z,2.70
2023-05-20T10:33:53.915Z,2.30
2023-05-20T10:36:55.898Z,2.30
2023-05-20T10:40:08.669Z,2.47
2023-05-20T10:43:11.838Z,2.38
2023-05-20T10:46:31.152Z,2.30
2023-05-20T10:49:36.143Z,2.20
2023-05-20T10:52:38.156Z,2.25
2023-05-20T10:55:41.570Z,2.45
2023-05-20T10:58:44.712Z,2.33
2023-05-20T11:01:46.837Z,2.50
2023-05-20T11:04:49.692Z,2.40
2023-05-20T11:07:52.316Z,2.40
2023-05-20T11:10:56.868Z,2.25
2023-05-20T11:14:00.410Z,2.30
2023-05-20T11:17:02.318Z,2.50
2023-05-20T11:20:04.760Z,2.80
2023-05-20T11:23:12.452Z,2.42
2023-05-20T11:26:14.416Z,2.30
2023-05-20T11:29:17.601Z,2.30
2023-05-20T11:32:21.396Z,2.40
2023-05-20T11:35:25.019Z,2.40
2023-05-20T11:38:26.826Z,2.42
2023-05-20T11:41:29.010Z,2.67
2023-05-20T11:44:31.091Z,2.88
2023-05-20T11:47:33.052Z,2.40
2023-05-20T11:50:39.598Z,2.35
2023-05-20T11:53:41.952Z,2.28
2023-05-20T11:56:45.466Z,2.65
2023-05-20T11:59:47.856Z,2.50
2023-05-20T12:02:49.970Z,2.50
2023-05-20T12:05:53.000Z,2.35
2023-05-20T12:08:54.951Z,1.90
2023-05-20T12:11:56.944Z,2.08
2023-05-20T12:14:58.867Z,2.03
2023-05-20T12:18:01.615Z,2.05
2023-05-20T12:21:03.709Z,2.65
2023-05-20T12:24:07.144Z,2.08
2023-05-20T12:27:09.075Z,2.30
2023-05-20T12:30:11.326Z,2.15
2023-05-20T12:33:13.636Z,1.85
2023-05-20T12:36:15.620Z,2.35
2023-05-20T12:39:18.597Z,2.33
2023-05-20T12:42:20.636Z,2.35
2023-05-20T12:45:26.170Z,2.42
2023-05-20T12:48:28.002Z,2.42
2023-05-20T12:51:29.972Z,2.50
2023-05-20T12:54:32.182Z,2.90
2023-05-20T12:57:34.169Z,2.40
2023-05-20T13:00:36.583Z,2.25
2023-05-20T13:03:38.639Z,2.50
2023-05-20T13:06:41.123Z,2.22
2023-05-20T13:09:42.995Z,2.25
2023-05-20T13:12:47.522Z,2.40
2023-05-20T13:15:49.623Z,2.35
2023-05-20T13:18:51.767Z,2.00
2023-05-20T13:21:56.433Z,2.10
2023-05-20T13:24:58.313Z,2.17
2023-05-20T13:28:00.151Z,2.33
2023-05-20T13:31:02.988Z,2.17
2023-05-20T13:34:06.025Z,2.17
2023-05-20T13:37:07.841Z,2.15
2023-05-20T13:43:11.621Z,1.88
2023-05-20T13:49:15.242Z,2.00
2023-05-20T13:52:17.145Z,2.20
2023-05-20T13:58:20.852Z,2.05
2023-05-20T14:04:26.140Z,2.15
2023-05-20T14:07:28.241Z,2.15
2023-05-20T14:10:30.247Z,1.95
2023-05-20T14:13:32.150Z,1.98
2023-05-20T14:19:36.146Z,2.40
2023-05-20T14:22:38.273Z,2.10
2023-05-20T14:28:42.108Z,1.88
2023-05-20T14:31:43.961Z,2.03
2023-05-20T14:37:47.643Z,2.17
2023-05-20T14:40:49.506Z,3.10
2023-05-20T14:43:51.526Z,2.83
2023-05-20T14:46:53.535Z,2.35
2023-05-20T14:52:58.047Z,4.18
2023-05-20T14:59:01.820Z,2.40
2023-05-20T15:05:07.793Z,2.22
2023-05-20T15:08:09.770Z,2.28
2023-05-20T15:14:13.260Z,2.00
2023-05-20T15:17:15.324Z,2.08
2023-05-20T15:23:18.961Z,2.20
2023-05-20T15:26:21.780Z,1.88
2023-05-20T15:29:23.773Z,1.83
2023-05-20T15:35:27.857Z,2.08
2023-05-20T15:38:29.693Z,2.28
2023-05-20T15:41:32.701Z,2.05
2023-05-20T15:44:36.165Z,2.10
2023-05-20T15:47:40.713Z,1.88
2023-05-20T15:50:42.883Z,1.98
2023-05-20T15:53:44.768Z,2.13
2023-05-20T15:56:46.706Z,2.10
2023-05-20T15:59:49.613Z,1.98
2023-05-20T16:02:51.614Z,2.30
2023-05-20T16:05:53.462Z,2.05
2023-05-20T16:08:55.304Z,1.90
2023-05-20T16:11:57.218Z,2.30
2023-05-20T16:14:59.222Z,1.90
2023-05-20T16:18:01.375Z,2.20
2023-05-20T16:24:09.102Z,2.30
2023-05-20T16:27:11.524Z,2.20
2023-05-20T16:30:13.439Z,2.17
2023-05-20T16:33:15.451Z,1.90
2023-05-20T16:36:17.273Z,2.10
2023-05-20T16:39:19.182Z,2.20
2023-05-20T16:42:21.038Z,1.70
2023-05-20T16:45:22.893Z,1.98
2023-05-20T16:48:24.799Z,2.10
2023-05-20T16:51:26.674Z,1.83
2023-05-20T16:54:28.563Z,1.98
2023-05-20T16:57:31.235Z,2.00
2023-05-20T17:00:33.289Z,2.03
2023-05-20T17:03:35.623Z,2.20
2023-05-20T17:06:40.002Z,1.88
2023-05-20T17:09:41.914Z,1.90
2023-05-20T17:12:43.755Z,1.70
2023-05-20T17:15:45.877Z,1.77
2023-05-20T17:18:48.691Z,2.00
2023-05-20T17:21:50.951Z,2.08
2023-05-20T17:24:52.764Z,2.03
2023-05-20T17:27:54.693Z,2.30
2023-05-20T17:30:56.814Z,2.10
2023-05-20T17:33:58.703Z,2.05
2023-05-20T17:37:00.757Z,2.20
2023-05-20T17:40:05.860Z,2.00
2023-05-20T17:43:07.766Z,2.00
2023-05-20T17:46:09.627Z,2.30
2023-05-20T17:49:11.497Z,2.03
2023-05-20T17:52:13.330Z,2.13
2023-05-20T17:55:15.306Z,2.38
2023-05-20T17:58:17.214Z,2.20
2023-05-20T18:01:19.039Z,2.30
2023-05-20T18:04:21.921Z,1.80
2023-05-20T18:07:23.917Z,1.92
2023-05-20T18:10:25.758Z,1.58
2023-05-20T18:13:27.640Z,1.55
2023-05-20T18:16:30.151Z,1.67
2023-05-20T18:19:33.921Z,1.60
2023-05-20T18:22:35.921Z,1.52
2023-05-20T18:25:39.933Z,1.90
2023-05-20T18:28:43.731Z,1.85
2023-05-20T18:31:45.664Z,1.70
2023-05-20T18:34:47.537Z,1.60
2023-05-20T18:37:49.496Z,1.50
2023-05-20T18:40:51.936Z,1.67
2023-05-20T18:46:55.578Z,1.70
2023-05-20T18:49:57.375Z,1.58
2023-05-20T18:52:59.433Z,1.60
2023-05-20T18:56:03.192Z,1.50
2023-05-20T18:59:05.105Z,1.50
2023-05-20T19:02:07.060Z,1.58
2023-05-20T19:05:10.022Z,1.60
2023-05-20T19:08:12.078Z,1.60
2023-05-20T19:11:15.465Z,1.20
2023-05-20T19:14:17.408Z,1.40
2023-05-20T19:17:21.034Z,1.40
2023-05-20T19:20:23.174Z,1.40
2023-05-20T19:23:25.049Z,1.40
2023-05-20T19:26:26.917Z,1.38
2023-05-20T19:29:28.903Z,1.52
2023-05-20T19:32:30.870Z,1.48
2023-05-20T19:35:33.983Z,1.40
2023-05-20T19:38:36.081Z,1.48
2023-05-20T19:41:39.986Z,1.58
2023-05-20T19:44:41.890Z,1.58
2023-05-20T19:47:44.073Z,1.67
2023-05-20T19:50:46.052Z,2.00
2023-05-20T19:53:47.909Z,1.70
2023-05-20T19:56:49.753Z,1.80
2023-05-20T19:59:53.534Z,1.63
2023-05-20T20:02:57.054Z,1.90
2023-05-20T20:05:58.986Z,1.60
2023-05-20T20:09:01.262Z,1.50
2023-05-20T20:12:03.323Z,1.60
2023-05-20T20:15:05.560Z,1.40
2023-05-20T20:18:07.507Z,1.83
2023-05-20T20:21:11.101Z,1.13
2023-05-20T20:24:12.925Z,1.10
2023-05-20T20:27:14.852Z,1.20
2023-05-20T20:30:16.626Z,1.13
2023-05-20T20:33:19.720Z,0.93
2023-05-20T20:36:21.612Z,1.13
2023-05-20T20:39:25.199Z,1.00
2023-05-20T20:42:27.990Z,1.40
2023-05-20T20:48:32.647Z,1.10
2023-05-20T20:51:34.424Z,1.10
2023-05-20T20:54:36.621Z,1.20
2023-05-20T20:57:39.288Z,1.10
2023-05-20T21:03:44.688Z,1.00
2023-05-20T21:06:46.634Z,1.00
2023-05-20T21:09:53.880Z,0.80
2023-05-20T21:12:57.093Z,0.90
2023-05-20T21:15:59.017Z,0.90
2023-05-20T21:19:00.969Z,1.00
2023-05-20T21:22:03.036Z,1.08
2023-05-20T21:25:05.393Z,0.85
2023-05-20T21:28:07.270Z,0.95
2023-05-20T21:31:09.267Z,1.40
2023-05-20T21:34:11.033Z,0.90
2023-05-20T21:37:12.853Z,0.88
2023-05-20T21:40:14.693Z,0.90
2023-05-20T21:43:17.828Z,0.80
2023-05-20T21:46:19.609Z,0.90
2023-05-20T21:49:21.405Z,0.90
2023-05-20T21:52:23.186Z,1.02
2023-05-20T21:55:25.105Z,0.80
2023-05-20T21:58:26.923Z,0.73
2023-05-20T22:01:29.121Z,0.80
2023-05-20T22:04:33.419Z,0.88
2023-05-20T22:07:35.366Z,0.90
2023-05-20T22:10:37.236Z,0.90
2023-05-20T22:13:43.292Z,0.73
2023-05-20T22:16:46.612Z,0.80
2023-05-20T22:19:49.910Z,0.90
2023-05-20T22:22:51.787Z,0.90
2023-05-20T22:25:55.008Z,0.70
2023-05-20T22:28:56.910Z,0.70
2023-05-20T22:31:59.811Z,0.87
2023-05-20T22:35:01.717Z,0.82
2023-05-20T22:38:03.691Z,0.80
2023-05-20T22:41:05.618Z,0.70
2023-05-20T22:44:07.523Z,0.70
2023-05-20T22:47:09.403Z,1.00
2023-05-20T22:50:13.695Z,1.10
2023-05-20T22:53:16.536Z,0.90
2023-05-20T22:59:21.349Z,1.00
2023-05-20T23:02:26.120Z,0.70
2023-05-20T23:05:30.093Z,0.82
2023-05-20T23:08:31.967Z,0.80
2023-05-20T23:11:33.784Z,0.60
2023-05-20T23:14:35.635Z,0.73
2023-05-20T23:17:39.551Z,0.70
2023-05-20T23:20:41.596Z,0.70
2023-05-20T23:23:43.503Z,0.60
2023-05-20T23:26:45.281Z,0.70
2023-05-20T23:29:47.452Z,0.80
2023-05-20T23:32:50.068Z,0.80
2023-05-20T23:35:52.689Z,0.60
2023-05-20T23:38:54.899Z,0.73
2023-05-20T23:41:56.724Z,0.80
2023-05-20T23:44:58.602Z,0.93
2023-05-20T23:48:01.538Z,0.80
2023-05-20T23:51:03.401Z,0.98
2023-05-20T23:54:05.189Z,0.73
2023-05-20T23:57:10.273Z,0.80
